Higgins, TX (79046)

08:08 AM CDT del 30 Luglio 2014 (GMT -0500)
Barnes - Farm (KOKGAGE2) Alt. 2220 ft | 36.28 °N, 99.80 °W | Change Station
Avvisi attivi: Flash Flood Watch

Current weather conditions updated 7 seconds ago

Rain
Pioggia
65.7 °F
Sembra 65.7 °F
N
3.0
Vento Variabile Vento da SSO
Gusts 7.0 mph

Oggi si prevede un abbassamento della temperatura rispetto a ieri. Temporali..

Oggi
Massima -- | Minima -- °F
--% Possibilità di precip.
Ieri
Massima -- | Minima -- °F
Precip. -- in
6:45 AM 8:46 PM
Luna crescente, 11% visible
Pressione 29.99 in
Visibilità 5.0 miglia
Nuvole Alcuni 900 ft
Molto nuvoloso 11000 ft
Punto di rugiada 64 °F
Umidità 94%
Piovosità 0.64 in
Spessore del manto nevoso Non disponibile.
Raggi UV 0.0 fuori da 12
Polline 2.00 fuori da 12
Qualità dell'aria Non disponibile.
Flu Activity Non disponibile.
METAR KGAG 301253Z AUTO 20010KT 5SM RA BR FEW009 BKN110 19/18 A3006 RMK AO2 SLP156 P0074 T01890178

More Conditions Fewer Conditions

Pressione 29.99 in
Visibilità 5.0 miglia
Nuvole Alcuni 900 ft
Molto nuvoloso 11000 ft
Punto di rugiada 64 °F
Umidità 94%
Piovosità 0.64 in
Spessore del manto nevoso Non disponibile.
Raggi UV 0.0 fuori da 12
Polline 2.00 fuori da 12
Qualità dell'aria Non disponibile.
Flu Activity Non disponibile.
METAR KGAG 301253Z AUTO 20010KT 5SM RA BR FEW009 BKN110 19/18 A3006 RMK AO2 SLP156 P0074 T01890178

More Conditions Fewer Conditions

10-Day Weather Forecast

Almanac

Astronomia

Jul. 30, 2014 Alba Tramonto
Ora attuale 06:45 CDT 20:46 CDT
Crepuscolo civile 06:17 CDT 21:15 CDT
Crepuscolo nautico 05:42 CDT 21:49 CDT
Crepuscolo astronomico 05:05 CDT 22:26 CDT
Luna 10:10 CDT 22:39 CDT
Estensione della luce visibile 14h 58m
Lunghezza del giorno
14h 01m
Tomorrow will be 1m 40s shorter.
Luna crescente, 11% of the Moon is Illuminated
Oggi
Luna crescente
Ago 3
Primo quarto
Ago 10
Luna piena
Ago 17
Ultimo quarto
Ago 25
Nuovo

Gli estremi di oggi

State Highs State Lows

Community

WunderPhotos

Upload Photos

1,739,071 foto caricate!

Nearby

Profondità neve

Stazione Profondità Altitudine
Non sono state evidenziate nuove nevicate

Attività sismica

Città  Distanza Mag. Data & Ora
Helena, Oklahoma 105 miglia 3.3 23:56 CDT
2014-07-24
Minimo Magnitudo Mostrato è 2.5.

Temperature delle acque costiere

Località Temperatura
Nessun dato dalle stazioni

Stazioni meteo nelle vicinanze

Ubicazione della stazione Temp. Punto di rugiada Umidità Vento Precip. Alt. Aggiornato Tipo
Barnes - Farm, Gage, OK 65.7 °F 64 °F 94% SSO  a  3.0 mph 0.29 in / hr 2220 ft 8:08 AM CDT Sequenza Rapida

Show More Stations Show Fewer Stations